createdAt,value
2022-12-08T00:00:32.049Z,5.95
2022-12-08T00:05:52.650Z,3.63
2022-12-08T00:10:54.274Z,4.50
2022-12-08T00:16:00.784Z,7.15
2022-12-08T00:21:03.061Z,3.55
2022-12-08T00:26:05.193Z,5.20
2022-12-08T00:31:11.459Z,5.28
2022-12-08T00:36:14.928Z,5.30
2022-12-08T00:41:40.145Z,9.48
2022-12-08T00:46:42.592Z,9.95
2022-12-08T00:51:45.138Z,7.05
2022-12-08T00:56:46.913Z,5.95
2022-12-08T01:01:48.662Z,4.70
2022-12-08T01:06:50.507Z,4.65
2022-12-08T01:11:52.211Z,4.85
2022-12-08T01:16:53.965Z,5.13
2022-12-08T01:21:55.700Z,5.53
2022-12-08T01:26:57.446Z,7.53
2022-12-08T01:31:59.105Z,5.25
2022-12-08T01:37:01.223Z,5.65
2022-12-08T01:42:02.884Z,9.60
2022-12-08T01:47:04.621Z,5.53
2022-12-08T01:52:26.769Z,9.88
2022-12-08T01:57:34.466Z,6.03
2022-12-08T02:03:00.149Z,6.65
2022-12-08T02:08:08.200Z,7.72
2022-12-08T02:13:15.416Z,6.65
2022-12-08T02:23:31.759Z,6.80
2022-12-08T02:29:09.941Z,7.43
2022-12-08T02:34:20.719Z,8.02
2022-12-08T02:39:42.103Z,9.02
2022-12-08T02:45:11.419Z,8.82
2022-12-08T02:50:13.416Z,8.65
2022-12-08T02:55:24.401Z,7.65
2022-12-08T03:00:29.613Z,8.32
2022-12-08T03:05:45.703Z,8.07
2022-12-08T03:11:02.062Z,6.85
2022-12-08T03:16:10.581Z,8.00
2022-12-08T03:21:16.398Z,8.43
2022-12-08T03:26:27.328Z,7.85
2022-12-08T03:31:33.525Z,8.30
2022-12-08T03:36:35.265Z,8.40
2022-12-08T03:41:37.608Z,7.72
2022-12-08T03:46:39.321Z,8.18
2022-12-08T03:51:40.957Z,7.35
2022-12-08T03:56:42.658Z,7.15
2022-12-08T04:01:44.371Z,7.63
2022-12-08T04:06:51.811Z,7.05
2022-12-08T04:11:55.340Z,7.55
2022-12-08T04:16:57.000Z,7.57
2022-12-08T04:21:58.669Z,8.00
2022-12-08T04:27:00.374Z,7.70
2022-12-08T04:32:09.189Z,7.13
2022-12-08T04:37:12.099Z,8.57
2022-12-08T04:42:13.748Z,7.55
2022-12-08T04:47:15.476Z,8.68
2022-12-08T04:52:17.097Z,7.40
2022-12-08T04:57:19.749Z,6.75
2022-12-08T05:02:21.631Z,7.55
2022-12-08T05:07:23.400Z,7.78
2022-12-08T05:12:25.420Z,8.30
2022-12-08T05:17:27.143Z,8.63
2022-12-08T05:22:28.761Z,9.52
2022-12-08T05:27:30.601Z,8.98
2022-12-08T05:32:32.286Z,8.27
2022-12-08T05:37:34.107Z,8.13
2022-12-08T05:42:35.752Z,8.07
2022-12-08T05:47:37.494Z,8.10
2022-12-08T05:52:39.201Z,7.55
2022-12-08T05:57:41.021Z,7.28
2022-12-08T06:02:42.862Z,7.90
2022-12-08T06:07:44.989Z,7.95
2022-12-08T06:12:46.783Z,9.05
2022-12-08T06:17:48.517Z,7.53
2022-12-08T06:22:50.346Z,8.70
2022-12-08T06:27:52.347Z,7.82
2022-12-08T06:32:54.457Z,8.00
2022-12-08T06:37:56.446Z,8.38
2022-12-08T06:42:58.118Z,8.18
2022-12-08T06:48:02.080Z,8.18
2022-12-08T06:53:05.747Z,9.80
2022-12-08T06:58:08.177Z,7.68
2022-12-08T07:03:11.576Z,8.20
2022-12-08T07:08:13.505Z,7.88
2022-12-08T07:13:15.566Z,8.55
2022-12-08T07:18:17.274Z,8.68
2022-12-08T07:23:19.265Z,8.90
2022-12-08T07:28:20.965Z,8.52
2022-12-08T07:33:22.588Z,9.20
2022-12-08T07:38:25.109Z,9.20
2022-12-08T07:43:29.892Z,10.00
2022-12-08T07:48:32.913Z,11.55
2022-12-08T07:53:34.970Z,9.68
2022-12-08T07:58:36.811Z,9.85
2022-12-08T08:03:38.596Z,10.02
2022-12-08T08:08:40.469Z,10.30
2022-12-08T08:13:42.430Z,9.27
2022-12-08T08:18:48.231Z,9.48
2022-12-08T08:23:49.934Z,10.43
2022-12-08T08:28:51.644Z,10.40
2022-12-08T08:33:53.960Z,11.38
2022-12-08T08:38:55.693Z,9.35
2022-12-08T08:43:57.316Z,10.23
2022-12-08T08:48:59.230Z,9.43
2022-12-08T08:54:00.904Z,9.63
2022-12-08T08:59:03.391Z,9.93
2022-12-08T09:04:05.442Z,9.38
2022-12-08T09:09:07.148Z,10.20
2022-12-08T09:14:11.997Z,9.25
2022-12-08T09:19:13.915Z,9.77
2022-12-08T09:24:16.467Z,10.02
2022-12-08T09:29:18.334Z,8.88
2022-12-08T09:34:20.075Z,10.50
2022-12-08T09:39:21.807Z,9.30
2022-12-08T09:44:48.332Z,8.32
2022-12-08T09:50:02.314Z,8.40
2022-12-08T09:55:12.961Z,8.88
2022-12-08T10:00:15.351Z,7.50
2022-12-08T10:05:17.235Z,8.35
2022-12-08T10:10:42.018Z,7.72
2022-12-08T10:16:11.081Z,7.47
2022-12-08T10:21:20.590Z,7.47
2022-12-08T10:26:22.587Z,6.70
2022-12-08T10:31:25.725Z,6.80
2022-12-08T10:36:50.162Z,5.85
2022-12-08T10:41:51.818Z,5.80
2022-12-08T10:46:53.691Z,5.07
2022-12-08T10:51:55.469Z,5.55
2022-12-08T10:56:57.706Z,6.13
2022-12-08T11:02:00.491Z,7.78
2022-12-08T11:07:04.711Z,5.38
2022-12-08T11:12:09.421Z,4.95
2022-12-08T11:17:11.093Z,5.75
2022-12-08T11:22:39.625Z,4.88
2022-12-08T11:27:47.400Z,4.43
2022-12-08T11:33:03.439Z,4.85
2022-12-08T11:38:21.249Z,4.53
2022-12-08T11:43:48.731Z,4.38
2022-12-08T11:48:53.473Z,3.80
2022-12-08T11:54:11.458Z,3.10
2022-12-08T11:59:38.430Z,3.65
2022-12-08T12:09:54.198Z,3.53
2022-12-08T12:15:17.562Z,3.15
2022-12-08T12:20:47.181Z,3.05
2022-12-08T12:25:59.276Z,3.45
2022-12-08T12:31:08.365Z,3.38
2022-12-08T12:36:11.379Z,3.47
2022-12-08T12:41:14.833Z,3.63
2022-12-08T12:46:25.624Z,3.70
2022-12-08T12:51:39.420Z,4.78
2022-12-08T12:56:48.661Z,4.45
2022-12-08T13:01:56.714Z,4.05
2022-12-08T13:06:59.168Z,4.00
2022-12-08T13:12:10.272Z,4.05
2022-12-08T13:17:16.540Z,5.80
2022-12-08T13:22:46.479Z,4.13
2022-12-08T13:27:54.698Z,4.93
2022-12-08T13:38:26.442Z,4.30
2022-12-08T13:43:55.510Z,3.83
2022-12-08T14:00:14.567Z,4.60
2022-12-08T14:05:20.329Z,4.55
2022-12-08T14:10:27.772Z,3.92
2022-12-08T14:15:37.257Z,5.03
2022-12-08T14:21:12.093Z,4.70
2022-12-08T14:26:04.990Z,4.65
2022-12-08T14:31:08.359Z,6.15
2022-12-08T14:36:20.966Z,4.75
2022-12-08T14:41:31.932Z,5.65
2022-12-08T14:46:33.796Z,5.60
2022-12-08T14:51:36.863Z,6.80
2022-12-08T14:56:56.898Z,6.85
2022-12-08T15:02:26.414Z,5.65
2022-12-08T15:07:46.676Z,5.20
2022-12-08T15:13:11.416Z,4.72
2022-12-08T15:18:18.405Z,4.80
2022-12-08T15:23:27.251Z,5.35
2022-12-08T15:28:30.583Z,5.78
2022-12-08T15:33:32.463Z,5.68
2022-12-08T15:38:34.213Z,9.43
2022-12-08T15:43:35.978Z,6.78
2022-12-08T15:48:37.982Z,8.07
2022-12-08T15:53:39.693Z,7.50
2022-12-08T15:58:57.940Z,8.13
2022-12-08T16:09:36.313Z,8.73
2022-12-08T16:20:01.992Z,8.07
2022-12-08T16:25:17.745Z,8.15
2022-12-08T16:30:20.414Z,7.47
2022-12-08T16:35:22.061Z,7.25
2022-12-08T16:40:23.955Z,5.97
2022-12-08T16:45:30.112Z,5.28
2022-12-08T16:50:34.322Z,6.13
2022-12-08T16:55:35.936Z,6.50
2022-12-08T17:00:37.916Z,6.72
2022-12-08T17:05:40.948Z,6.40
2022-12-08T17:10:42.684Z,5.47
2022-12-08T17:15:44.281Z,4.70
2022-12-08T17:20:45.948Z,5.68
2022-12-08T17:25:58.657Z,5.00
2022-12-08T17:31:00.472Z,4.85
2022-12-08T17:36:02.171Z,5.75
2022-12-08T17:41:08.568Z,5.40
2022-12-08T17:46:10.361Z,4.87
2022-12-08T17:51:12.214Z,4.95
2022-12-08T17:56:17.583Z,5.07
2022-12-08T18:01:19.341Z,4.80
2022-12-08T18:06:21.264Z,4.85
2022-12-08T18:11:23.256Z,4.88
2022-12-08T18:16:29.206Z,5.03
2022-12-08T18:21:30.966Z,4.93
2022-12-08T18:26:33.132Z,5.57
2022-12-08T18:31:34.887Z,5.30
2022-12-08T18:36:36.570Z,4.47
2022-12-08T18:41:38.161Z,6.15
2022-12-08T18:46:39.903Z,6.15
2022-12-08T18:51:42.760Z,5.60
2022-12-08T18:56:44.392Z,5.57
2022-12-08T19:01:46.116Z,5.05
2022-12-08T19:06:47.816Z,5.00
2022-12-08T19:11:50.101Z,5.50
2022-12-08T19:16:51.994Z,5.25
2022-12-08T19:21:53.709Z,5.03
2022-12-08T19:26:55.364Z,4.90
2022-12-08T19:31:57.460Z,4.93
2022-12-08T19:36:59.229Z,5.25
2022-12-08T19:42:19.825Z,4.80
2022-12-08T19:47:24.008Z,5.03
2022-12-08T19:52:25.740Z,5.25
2022-12-08T19:57:27.468Z,4.80
2022-12-08T20:02:29.587Z,6.80
2022-12-08T20:07:31.618Z,5.00
2022-12-08T20:12:33.328Z,4.78
2022-12-08T20:17:35.115Z,4.72
2022-12-08T20:22:36.847Z,5.65
2022-12-08T20:27:38.631Z,6.13
2022-12-08T20:32:40.413Z,5.85
2022-12-08T20:37:42.782Z,5.85
2022-12-08T20:42:44.496Z,7.00
2022-12-08T20:47:46.191Z,6.55
2022-12-08T20:52:47.906Z,7.55
2022-12-08T20:57:49.776Z,7.50
2022-12-08T21:02:56.524Z,7.55
2022-12-08T21:07:59.031Z,6.80
2022-12-08T21:13:02.103Z,7.75
2022-12-08T21:18:04.123Z,7.53
2022-12-08T21:23:06.334Z,7.55
2022-12-08T21:28:08.115Z,9.35
2022-12-08T21:33:10.238Z,7.90
2022-12-08T21:38:12.470Z,9.85
2022-12-08T21:43:14.331Z,10.77
2022-12-08T21:48:16.444Z,10.30
2022-12-08T21:53:18.995Z,11.45
2022-12-08T21:58:20.952Z,11.98
2022-12-08T22:03:22.830Z,12.30
2022-12-08T22:08:24.916Z,14.43
2022-12-08T22:13:27.323Z,13.63
2022-12-08T22:18:29.392Z,12.57
2022-12-08T22:23:34.181Z,12.93
2022-12-08T22:28:39.591Z,14.15
2022-12-08T22:33:42.943Z,15.18
2022-12-08T22:38:44.856Z,12.65
2022-12-08T22:43:47.604Z,14.13
2022-12-08T22:48:50.067Z,13.57
2022-12-08T22:53:52.179Z,13.43
2022-12-08T22:58:54.132Z,13.43
2022-12-08T23:03:56.828Z,13.02
2022-12-08T23:08:59.383Z,12.68
2022-12-08T23:14:01.246Z,12.98
2022-12-08T23:19:03.122Z,13.18
2022-12-08T23:24:05.278Z,13.95
2022-12-08T23:29:07.071Z,12.50
2022-12-08T23:34:09.666Z,13.95
2022-12-08T23:39:11.870Z,13.95
2022-12-08T23:44:13.939Z,13.70
2022-12-08T23:49:15.972Z,14.35
2022-12-08T23:54:17.872Z,14.55
2022-12-08T23:59:19.584Z,14.05
